sensor_id;sensor_type;location;lat;lon;timestamp;temperature;humidity
52439;DHT22;38359;53.150;6.504;2022-11-18T00:07:25;7.50;99.90
52439;DHT22;38359;53.150;6.504;2022-11-18T00:17:51;7.40;99.90
52439;DHT22;38359;53.150;6.504;2022-11-18T00:28:16;7.40;99.90
52439;DHT22;38359;53.150;6.504;2022-11-18T00:38:42;7.50;99.90
52439;DHT22;38359;53.150;6.504;2022-11-18T00:49:08;7.40;99.90
52439;DHT22;38359;53.150;6.504;2022-11-18T00:59:34;7.50;99.90
52439;DHT22;38359;53.150;6.504;2022-11-18T01:10:00;7.50;99.90
52439;DHT22;38359;53.150;6.504;2022-11-18T01:20:26;7.60;99.90
52439;DHT22;38359;53.150;6.504;2022-11-18T01:30:52;7.50;99.90
52439;DHT22;38359;53.150;6.504;2022-11-18T01:41:20;7.40;99.90
52439;DHT22;38359;53.150;6.504;2022-11-18T01:51:53;7.50;99.90
52439;DHT22;38359;53.150;6.504;2022-11-18T02:02:20;7.50;99.90
52439;DHT22;38359;53.150;6.504;2022-11-18T02:12:48;7.50;99.90
52439;DHT22;38359;53.150;6.504;2022-11-18T02:34:16;7.40;99.90
52439;DHT22;38359;53.150;6.504;2022-11-18T02:44:51;7.40;99.90
52439;DHT22;38359;53.150;6.504;2022-11-18T02:55:21;7.40;99.90
52439;DHT22;38359;53.150;6.504;2022-11-18T03:06:09;7.40;99.90
52439;DHT22;38359;53.150;6.504;2022-11-18T03:17:00;7.30;99.90
52439;DHT22;38359;53.150;6.504;2022-11-18T03:38:16;7.30;99.90
52439;DHT22;38359;53.150;6.504;2022-11-18T03:48:52;7.20;99.90
52439;DHT22;38359;53.150;6.504;2022-11-18T03:59:29;7.20;99.90
52439;DHT22;38359;53.150;6.504;2022-11-18T04:10:05;7.20;99.90
52439;DHT22;38359;53.150;6.504;2022-11-18T04:20:36;7.20;99.90
52439;DHT22;38359;53.150;6.504;2022-11-18T04:31:02;7.20;99.90
52439;DHT22;38359;53.150;6.504;2022-11-18T04:41:28;7.20;99.90
52439;DHT22;38359;53.150;6.504;2022-11-18T04:52:12;7.10;99.90
52439;DHT22;38359;53.150;6.504;2022-11-18T05:02:38;7.10;99.90
52439;DHT22;38359;53.150;6.504;2022-11-18T05:13:04;7.00;99.90
52439;DHT22;38359;53.150;6.504;2022-11-18T05:23:30;7.00;99.90
52439;DHT22;38359;53.150;6.504;2022-11-18T05:33:55;7.10;99.90
52439;DHT22;38359;53.150;6.504;2022-11-18T05:44:21;6.90;99.90
52439;DHT22;38359;53.150;6.504;2022-11-18T05:54:49;7.00;99.90
52439;DHT22;38359;53.150;6.504;2022-11-18T06:05:15;6.90;99.90
52439;DHT22;38359;53.150;6.504;2022-11-18T06:15:43;6.90;99.90
52439;DHT22;38359;53.150;6.504;2022-11-18T06:26:11;6.90;99.90
52439;DHT22;38359;53.150;6.504;2022-11-18T06:36:38;6.80;99.90
52439;DHT22;38359;53.150;6.504;2022-11-18T06:47:04;6.80;99.90
52439;DHT22;38359;53.150;6.504;2022-11-18T06:57:30;6.90;99.90
52439;DHT22;38359;53.150;6.504;2022-11-18T07:07:55;6.80;99.90
52439;DHT22;38359;53.150;6.504;2022-11-18T07:18:21;6.80;99.90
52439;DHT22;38359;53.150;6.504;2022-11-18T07:28:47;6.80;99.90
52439;DHT22;38359;53.150;6.504;2022-11-18T07:39:13;6.90;99.90
52439;DHT22;38359;53.150;6.504;2022-11-18T07:49:39;6.80;99.90
52439;DHT22;38359;53.150;6.504;2022-11-18T08:00:05;6.80;99.90
52439;DHT22;38359;53.150;6.504;2022-11-18T08:10:31;6.70;99.90
52439;DHT22;38359;53.150;6.504;2022-11-18T08:21:04;6.60;99.90
52439;DHT22;38359;53.150;6.504;2022-11-18T08:31:30;6.60;99.90
52439;DHT22;38359;53.150;6.504;2022-11-18T08:41:57;6.80;99.90
52439;DHT22;38359;53.150;6.504;2022-11-18T08:52:23;6.80;99.90
52439;DHT22;38359;53.150;6.504;2022-11-18T09:02:49;6.80;99.90
52439;DHT22;38359;53.150;6.504;2022-11-18T09:13:14;6.80;99.90
52439;DHT22;38359;53.150;6.504;2022-11-18T09:23:40;6.60;99.90
52439;DHT22;38359;53.150;6.504;2022-11-18T09:34:06;6.70;99.90
52439;DHT22;38359;53.150;6.504;2022-11-18T09:55:16;6.80;99.90
52439;DHT22;38359;53.150;6.504;2022-11-18T10:27:25;6.60;99.90
52439;DHT22;38359;53.150;6.504;2022-11-18T10:38:05;6.60;99.90
52439;DHT22;38359;53.150;6.504;2022-11-18T10:48:37;6.70;99.90
52439;DHT22;38359;53.150;6.504;2022-11-18T10:59:03;6.60;99.90
52439;DHT22;38359;53.150;6.504;2022-11-18T11:09:29;6.80;99.90
52439;DHT22;38359;53.150;6.504;2022-11-18T11:20:14;6.60;99.90
52439;DHT22;38359;53.150;6.504;2022-11-18T11:42:04;6.10;99.90
52439;DHT22;38359;53.150;6.504;2022-11-18T12:03:55;5.90;99.90
52439;DHT22;38359;53.150;6.504;2022-11-18T12:14:44;5.80;99.90
52439;DHT22;38359;53.150;6.504;2022-11-18T12:36:30;5.80;99.90
52439;DHT22;38359;53.150;6.504;2022-11-18T12:46:59;5.50;99.90
52439;DHT22;38359;53.150;6.504;2022-11-18T12:57:33;5.50;99.90
52439;DHT22;38359;53.150;6.504;2022-11-18T13:08:03;5.50;99.90
52439;DHT22;38359;53.150;6.504;2022-11-18T13:18:50;5.60;99.90
52439;DHT22;38359;53.150;6.504;2022-11-18T13:29:37;5.60;99.90
52439;DHT22;38359;53.150;6.504;2022-11-18T13:40:22;5.60;99.90
52439;DHT22;38359;53.150;6.504;2022-11-18T13:50:51;5.50;99.90
52439;DHT22;38359;53.150;6.504;2022-11-18T14:01:22;5.30;99.90
52439;DHT22;38359;53.150;6.504;2022-11-18T14:12:05;5.10;99.90
52439;DHT22;38359;53.150;6.504;2022-11-18T14:22:54;5.00;99.90
52439;DHT22;38359;53.150;6.504;2022-11-18T14:33:23;4.90;99.90
52439;DHT22;38359;53.150;6.504;2022-11-18T14:43:49;4.90;99.90
52439;DHT22;38359;53.150;6.504;2022-11-18T14:54:16;4.80;99.90
52439;DHT22;38359;53.150;6.504;2022-11-18T15:04:43;4.80;99.90
52439;DHT22;38359;53.150;6.504;2022-11-18T15:15:09;4.60;99.90
52439;DHT22;38359;53.150;6.504;2022-11-18T15:25:35;4.70;99.90
52439;DHT22;38359;53.150;6.504;2022-11-18T15:36:00;4.60;99.90
52439;DHT22;38359;53.150;6.504;2022-11-18T15:46:27;4.40;99.90
52439;DHT22;38359;53.150;6.504;2022-11-18T15:56:54;4.40;99.90
52439;DHT22;38359;53.150;6.504;2022-11-18T16:07:20;4.30;99.90
52439;DHT22;38359;53.150;6.504;2022-11-18T16:17:46;4.20;99.90
52439;DHT22;38359;53.150;6.504;2022-11-18T16:28:11;4.10;99.90
52439;DHT22;38359;53.150;6.504;2022-11-18T16:38:37;4.10;99.90
52439;DHT22;38359;53.150;6.504;2022-11-18T16:49:05;3.90;99.90
52439;DHT22;38359;53.150;6.504;2022-11-18T16:59:31;3.90;99.90
52439;DHT22;38359;53.150;6.504;2022-11-18T17:09:57;3.90;99.90
52439;DHT22;38359;53.150;6.504;2022-11-18T17:20:23;3.90;99.90
52439;DHT22;38359;53.150;6.504;2022-11-18T17:30:48;3.70;99.90
52439;DHT22;38359;53.150;6.504;2022-11-18T17:41:17;3.60;99.90
52439;DHT22;38359;53.150;6.504;2022-11-18T17:52:02;3.60;99.90
52439;DHT22;38359;53.150;6.504;2022-11-18T18:02:28;3.40;99.90
52439;DHT22;38359;53.150;6.504;2022-11-18T18:12:54;3.50;99.90
52439;DHT22;38359;53.150;6.504;2022-11-18T18:23:39;3.10;99.90
52439;DHT22;38359;53.150;6.504;2022-11-18T18:34:05;3.10;99.90
52439;DHT22;38359;53.150;6.504;2022-11-18T18:44:31;3.20;99.90
52439;DHT22;38359;53.150;6.504;2022-11-18T18:55:15;3.20;99.90
52439;DHT22;38359;53.150;6.504;2022-11-18T19:05:41;3.30;99.90
52439;DHT22;38359;53.150;6.504;2022-11-18T19:16:07;3.00;99.90
52439;DHT22;38359;53.150;6.504;2022-11-18T19:26:33;3.00;99.90
52439;DHT22;38359;53.150;6.504;2022-11-18T19:36:59;3.00;99.90
52439;DHT22;38359;53.150;6.504;2022-11-18T19:47:26;2.90;99.90
52439;DHT22;38359;53.150;6.504;2022-11-18T19:57:52;3.00;99.90
52439;DHT22;38359;53.150;6.504;2022-11-18T20:08:19;3.10;99.90
52439;DHT22;38359;53.150;6.504;2022-11-18T20:18:47;3.00;99.90
52439;DHT22;38359;53.150;6.504;2022-11-18T20:29:17;2.80;99.90
52439;DHT22;38359;53.150;6.504;2022-11-18T20:39:42;2.60;99.90
52439;DHT22;38359;53.150;6.504;2022-11-18T20:50:08;2.60;99.90
52439;DHT22;38359;53.150;6.504;2022-11-18T21:00:34;2.70;99.90
52439;DHT22;38359;53.150;6.504;2022-11-18T21:11:01;2.70;99.90
52439;DHT22;38359;53.150;6.504;2022-11-18T21:21:28;2.60;99.90
52439;DHT22;38359;53.150;6.504;2022-11-18T21:32:09;2.70;99.90
52439;DHT22;38359;53.150;6.504;2022-11-18T21:42:34;2.70;99.90
52439;DHT22;38359;53.150;6.504;2022-11-18T21:53:00;2.50;99.90
52439;DHT22;38359;53.150;6.504;2022-11-18T22:03:26;2.50;99.90
52439;DHT22;38359;53.150;6.504;2022-11-18T22:13:52;2.50;99.90
52439;DHT22;38359;53.150;6.504;2022-11-18T22:24:18;2.50;99.90
52439;DHT22;38359;53.150;6.504;2022-11-18T22:34:44;2.50;99.90
52439;DHT22;38359;53.150;6.504;2022-11-18T22:45:09;2.40;99.90
52439;DHT22;38359;53.150;6.504;2022-11-18T22:55:35;2.50;99.90
52439;DHT22;38359;53.150;6.504;2022-11-18T23:06:02;2.50;99.90
52439;DHT22;38359;53.150;6.504;2022-11-18T23:16:30;2.30;99.90
52439;DHT22;38359;53.150;6.504;2022-11-18T23:26:57;2.30;99.90
52439;DHT22;38359;53.150;6.504;2022-11-18T23:37:23;2.30;99.90
52439;DHT22;38359;53.150;6.504;2022-11-18T23:47:48;2.30;99.90
52439;DHT22;38359;53.150;6.504;2022-11-18T23:58:15;2.30;99.90
